White Rock, SC (29177)

7:48 AM EST on March 01, 2015 (GMT -0500)
Stinking Creek Basin | Change Station
CLOSE
Current Station
Personal Weather Station
Location: Chapin, SC
Elevation: 368 ft
Nearby Weather Stations

Elev 368 ft 34.12 °N, 81.32 °W | Updated 3 minutes ago

Rain
Rain
33.9 °F
Feels Like 34 °F
N
0.0
Wind Variable Wind from NW
Gusts 0.0 mph

Today
High -- | Low -- °F
--% Chance of Precip.
Yesterday
High -- | Low -- °F
Precip. -- in
6:54 AM 6:21 PM
Waxing Gibbous, 85% visible
Pressure 30.52 in
Visibility 5.0 miles
Clouds Overcast 500 ft
Windchill 34 °F
Dew Point 33 °F
Humidity 95%
Rainfall 0.23 in
Snow Depth Not available.
UV 0 out of 12
Pollen 2.40 out of 12
Air Quality Not available.
Flu Activity Not available.
METAR KFDW 011235Z AUTO 03006KT 5SM UP OVC005 00/00 A3052 RMK AO1

More Conditions Fewer Conditions

Pressure 30.52 in
Visibility 5.0 miles
Clouds Overcast 500 ft
Windchill 34 °F
Dew Point 33 °F
Humidity 95%
Rainfall 0.23 in
Snow Depth Not available.
UV 0 out of 12
Pollen 2.40 out of 12
Air Quality Not available.
Flu Activity Not available.
METAR KFDW 011235Z AUTO 03006KT 5SM UP OVC005 00/00 A3052 RMK AO1

More Conditions Fewer Conditions

10-Day Weather Forecast

Almanac

Astronomy

Mar. 01, 2015 Rise Set
Actual Time
Civil Twilight
Nautical Twilight
Astronomical Twilight
Moon
Length of Visible Light
Length of Day
Tomorrow will be .
, % of the Moon is Illuminated

Today's Extremes

State Highs State Lows

Community

WunderPhotos

Upload Photos

1,801,371 photos uploaded!

WunderBlogs® & News

Nearby

Air Quality

  Air Quality AQ Index Pollutant
Not available.

Snow Depth

Station Depth Elevation

Earthquake Activity

City Distance Mag. Time & Date
Minimum magnitude displayed is 2.5.

Coastal Water Temperatures

Place Temperature

Nearby Weather Stations